Terminal Aerodrome Forecast
Issued by NWS

Home | Current Version | Previous Version | Graphics & Text | Print | Product List | Glossary On
Versions: 1 2 3 4 5 6 7 8 9 10 11 12 13 14 15 16 17 18 19 20 21
000
FTUS42 KMHX 230535
TAFPGV
TAF
KPGV 230535Z 2306/2406 VRB04KT P6SM BKN015
     FM230800 VRB04KT P6SM BKN010
     FM231500 35005KT P6SM VCTS BKN025CB
     FM231900 35005KT P6SM VCTS BKN030CB
     FM232200 34006KT P6SM OVC050
      AMD LTD TO CLD VIS AND WIND=

USA.gov is the U.S. government's official web portal to all federal, state and local government web resources and services.